Impacts METAR Board INFO
IDs:

KLGA - New York/La Guardia, NY, US

Updated at: 1711 UTC 20 Jan 2018
Potential Impact None Slight Moderate High
Time20/05Z 20/06Z 20/07Z 20/08Z 20/09Z 20/10Z 20/11Z 20/12Z 20/13Z 20/14Z 20/15Z 20/16Z 20/17Z
VIS10 10 10 10 10 10 10 10 10 10 10 10 10
CIG-- -- -- -- -- -- -- -- -- 250 250 250 250
CoverFEWFEWFEWFEWFEWFEWSCTSCTSCTBKNBKNBKNBKN
FltCatVFRVFRVFRVFRVFRVFRVFRVFRVFRVFRVFRVFRVFR
WX--------------------------
WDir220230210220230220220230220230230250270
WSpd11 9 10 11 12 10 10 12 8 12 14 9 12
WGst-- -- -- -- 20 17 -- -- 20 21 19 15 --
Raw hourly METARs
KLGA 200451Z 22011KT 10SM FEW250 04/M07 A2993 RMK AO2 SLP134 T00391072 400441033
KLGA 200551Z 23009KT 10SM FEW250 04/M07 A2992 RMK AO2 SLP130 T00391072 10044 20033 56019
KLGA 200651Z 21010KT 10SM FEW250 03/M07 A2990 RMK AO2 SLP126 T00331072
KLGA 200751Z 22011KT 10SM FEW250 03/M07 A2990 RMK AO2 SLP124 T00331072
KLGA 200851Z 23012G20KT 10SM FEW250 04/M07 A2989 RMK AO2 SLP120 T00441072 57010
KLGA 200951Z 22010G17KT 10SM FEW250 04/M07 A2988 RMK AO2 SLP116 T00441072
KLGA 201051Z 22010KT 10SM SCT250 04/M07 A2987 RMK AO2 SLP116 T00441067
KLGA 201151Z 23012KT 10SM SCT250 04/M07 A2986 RMK AO2 SLP112 T00441067 10044 20028 57007
KLGA 201251Z 22008G20KT 10SM SCT250 04/M06 A2987 RMK AO2 SLP116 T00441061
KLGA 201351Z 23012G21KT 10SM BKN250 06/M06 A2988 RMK AO2 SLP119 T00611056
KLGA 201451Z 23014G19KT 10SM BKN250 08/M05 A2990 RMK AO2 SLP126 T00781050 53014
KLGA 201551Z 25009G15KT 10SM BKN250 09/M05 A2989 RMK AO2 SLP120 T00891050
KLGA 201651Z 27012KT 10SM BKN250 11/M04 A2986 RMK AO2 PK WND 24027/1602 SLP112 T01061044